sensor_id;sensor_type;location;lat;lon;timestamp;pressure;altitude;pressure_sealevel;temperature;humidity
81125;BME280;72192;52.114;5.424;2023-09-07T00:01:05;102090.38;;;16.83;88.27
81125;BME280;72192;52.114;5.424;2023-09-07T00:03:54;102092.09;;;16.76;88.88
81125;BME280;72192;52.114;5.424;2023-09-07T00:06:44;102081.19;;;16.68;89.05
81125;BME280;72192;52.114;5.424;2023-09-07T00:09:12;102092.44;;;16.65;89.13
81125;BME280;72192;52.114;5.424;2023-09-07T00:12:02;102084.25;;;16.57;89.28
81125;BME280;72192;52.114;5.424;2023-09-07T00:14:52;102079.34;;;16.52;89.32
81125;BME280;72192;52.114;5.424;2023-09-07T00:17:45;102079.16;;;16.46;89.57
81125;BME280;72192;52.114;5.424;2023-09-07T00:20:33;102081.53;;;16.41;90.77
81125;BME280;72192;52.114;5.424;2023-09-07T00:23:21;102076.78;;;16.34;89.44
81125;BME280;72192;52.114;5.424;2023-09-07T00:26:09;102071.16;;;16.28;90.88
81125;BME280;72192;52.114;5.424;2023-09-07T00:29:00;102070.97;;;16.21;91.08
81125;BME280;72192;52.114;5.424;2023-09-07T00:31:49;102069.97;;;16.22;91.06
81125;BME280;72192;52.114;5.424;2023-09-07T00:34:43;102069.28;;;16.28;91.97
81125;BME280;72192;52.114;5.424;2023-09-07T00:37:31;102071.16;;;16.28;90.53
81125;BME280;72192;52.114;5.424;2023-09-07T00:40:20;102065.88;;;16.26;91.11
81125;BME280;72192;52.114;5.424;2023-09-07T00:43:09;102067.09;;;16.24;91.02
81125;BME280;72192;52.114;5.424;2023-09-07T00:45:57;102070.13;;;16.21;91.64
81125;BME280;72192;52.114;5.424;2023-09-07T00:48:45;102065.38;;;16.23;91.75
81125;BME280;72192;52.114;5.424;2023-09-07T00:51:34;102064.19;;;16.25;91.70
81125;BME280;72192;52.114;5.424;2023-09-07T00:54:22;102064.84;;;16.27;90.96
81125;BME280;72192;52.114;5.424;2023-09-07T00:57:11;102061.44;;;16.25;90.96
81125;BME280;72192;52.114;5.424;2023-09-07T00:59:59;102063.16;;;16.26;90.82
81125;BME280;72192;52.114;5.424;2023-09-07T01:02:48;102058.56;;;16.27;91.21
81125;BME280;72192;52.114;5.424;2023-09-07T01:05:46;102057.53;;;16.28;90.81
81125;BME280;72192;52.114;5.424;2023-09-07T01:39:08;102056.50;;;15.88;89.58
81125;BME280;72192;52.114;5.424;2023-09-07T01:41:57;102056.31;;;15.73;89.11
81125;BME280;72192;52.114;5.424;2023-09-07T01:44:46;102053.34;;;15.59;88.65
81125;BME280;72192;52.114;5.424;2023-09-07T01:47:34;102049.06;;;15.48;89.46
81125;BME280;72192;52.114;5.424;2023-09-07T01:50:22;102055.00;;;15.35;89.40
81125;BME280;72192;52.114;5.424;2023-09-07T02:25:37;102045.56;;;15.21;90.46
81125;BME280;72192;52.114;5.424;2023-09-07T02:28:25;102044.69;;;15.13;90.27
81125;BME280;72192;52.114;5.424;2023-09-07T02:31:13;102046.88;;;15.09;91.44
81125;BME280;72192;52.114;5.424;2023-09-07T02:34:01;102047.91;;;15.08;91.35
81125;BME280;72192;52.114;5.424;2023-09-07T02:36:50;102049.94;;;15.06;92.05
81125;BME280;72192;52.114;5.424;2023-09-07T02:39:37;102050.78;;;15.07;91.54
81125;BME280;72192;52.114;5.424;2023-09-07T02:42:27;102046.88;;;15.09;92.15
81125;BME280;72192;52.114;5.424;2023-09-07T02:45:16;102047.41;;;15.13;91.60
81125;BME280;72192;52.114;5.424;2023-09-07T02:48:04;102055.44;;;15.14;91.60
81125;BME280;72192;52.114;5.424;2023-09-07T02:50:52;102057.44;;;15.12;91.39
81125;BME280;72192;52.114;5.424;2023-09-07T02:53:40;102047.91;;;15.08;90.84
81125;BME280;72192;52.114;5.424;2023-09-07T02:56:28;102054.66;;;15.04;91.07
81125;BME280;72192;52.114;5.424;2023-09-07T02:59:17;102049.72;;;15.00;91.40
81125;BME280;72192;52.114;5.424;2023-09-07T03:02:06;102056.53;;;14.96;91.47
81125;BME280;72192;52.114;5.424;2023-09-07T03:04:57;102060.09;;;14.96;91.33
81125;BME280;72192;52.114;5.424;2023-09-07T03:07:46;102053.94;;;14.94;91.31
81125;BME280;72192;52.114;5.424;2023-09-07T03:10:36;102052.56;;;14.90;91.43
81125;BME280;72192;52.114;5.424;2023-09-07T03:13:26;102064.47;;;14.89;91.68
81125;BME280;72192;52.114;5.424;2023-09-07T03:16:14;102054.63;;;14.88;91.29
81125;BME280;72192;52.114;5.424;2023-09-07T03:19:02;102060.72;;;14.90;90.99
81125;BME280;72192;52.114;5.424;2023-09-07T03:21:50;102046.97;;;14.91;91.23
81125;BME280;72192;52.114;5.424;2023-09-07T03:24:18;102052.75;;;14.88;90.61
81125;BME280;72192;52.114;5.424;2023-09-07T03:27:07;102057.78;;;14.83;90.87
81125;BME280;72192;52.114;5.424;2023-09-07T03:29:57;102057.06;;;14.73;90.76
81125;BME280;72192;52.114;5.424;2023-09-07T03:32:47;102060.44;;;14.67;90.58
81125;BME280;72192;52.114;5.424;2023-09-07T03:35:35;102054.44;;;14.63;91.08
81125;BME280;72192;52.114;5.424;2023-09-07T03:38:25;102055.63;;;14.61;91.19
81125;BME280;72192;52.114;5.424;2023-09-07T03:41:13;102055.09;;;14.57;91.74
81125;BME280;72192;52.114;5.424;2023-09-07T03:44:01;102047.63;;;14.59;91.74
81125;BME280;72192;52.114;5.424;2023-09-07T03:46:49;102050.19;;;14.61;91.23
81125;BME280;72192;52.114;5.424;2023-09-07T03:49:37;102048.31;;;14.61;90.88
81125;BME280;72192;52.114;5.424;2023-09-07T03:52:05;102044.59;;;14.62;91.52
81125;BME280;72192;52.114;5.424;2023-09-07T03:54:54;102051.91;;;14.62;91.28
81125;BME280;72192;52.114;5.424;2023-09-07T03:57:43;102058.53;;;14.59;90.89
81125;BME280;72192;52.114;5.424;2023-09-07T04:00:30;102053.41;;;14.56;90.85
81125;BME280;72192;52.114;5.424;2023-09-07T04:03:18;102058.28;;;14.53;90.93
81125;BME280;72192;52.114;5.424;2023-09-07T04:06:07;102059.47;;;14.50;91.10
81125;BME280;72192;52.114;5.424;2023-09-07T04:08:55;102051.91;;;14.44;91.04
81125;BME280;72192;52.114;5.424;2023-09-07T04:11:44;102056.66;;;14.42;91.38
81125;BME280;72192;52.114;5.424;2023-09-07T04:14:33;102059.22;;;14.44;91.54
81125;BME280;72192;52.114;5.424;2023-09-07T04:17:21;102062.78;;;14.44;91.43
81125;BME280;72192;52.114;5.424;2023-09-07T04:50:15;102062.53;;;14.12;91.12
81125;BME280;72192;52.114;5.424;2023-09-07T04:53:03;102070.53;;;14.13;91.55
81125;BME280;72192;52.114;5.424;2023-09-07T04:55:51;102060.66;;;14.12;91.24
81125;BME280;72192;52.114;5.424;2023-09-07T04:58:40;102058.66;;;14.14;91.22
81125;BME280;72192;52.114;5.424;2023-09-07T05:01:28;102070.34;;;14.15;91.23
81125;BME280;72192;52.114;5.424;2023-09-07T05:04:16;102067.81;;;14.13;90.82
81125;BME280;72192;52.114;5.424;2023-09-07T05:07:04;102068.66;;;14.14;90.94
81125;BME280;72192;52.114;5.424;2023-09-07T05:40:17;102106.75;;;14.57;90.10
81125;BME280;72192;52.114;5.424;2023-09-07T05:43:06;102099.97;;;14.61;89.83
81125;BME280;72192;52.114;5.424;2023-09-07T05:45:55;102094.28;;;14.73;89.41
81125;BME280;72192;52.114;5.424;2023-09-07T05:48:44;102090.59;;;14.82;89.19
81125;BME280;72192;52.114;5.424;2023-09-07T05:51:13;102096.94;;;14.90;89.50
81125;BME280;72192;52.114;5.424;2023-09-07T05:54:03;102096.81;;;15.00;89.32
81125;BME280;72192;52.114;5.424;2023-09-07T05:56:32;102099.44;;;15.10;89.62
81125;BME280;72192;52.114;5.424;2023-09-07T05:59:21;102107.69;;;15.26;89.63
81125;BME280;72192;52.114;5.424;2023-09-07T06:02:09;102106.19;;;15.40;89.23
81125;BME280;72192;52.114;5.424;2023-09-07T06:04:57;102105.06;;;15.59;89.24
81125;BME280;72192;52.114;5.424;2023-09-07T06:07:45;102102.78;;;15.80;88.80
81125;BME280;72192;52.114;5.424;2023-09-07T06:10:34;102098.56;;;16.02;88.64
81125;BME280;72192;52.114;5.424;2023-09-07T06:13:23;102102.84;;;16.21;88.03
81125;BME280;72192;52.114;5.424;2023-09-07T06:16:11;102109.50;;;16.43;87.48
81125;BME280;72192;52.114;5.424;2023-09-07T06:18:59;102116.81;;;16.58;87.88
81125;BME280;72192;52.114;5.424;2023-09-07T06:21:47;102116.66;;;16.76;87.38
81125;BME280;72192;52.114;5.424;2023-09-07T06:24:35;102115.44;;;16.95;87.31
81125;BME280;72192;52.114;5.424;2023-09-07T06:27:24;102112.91;;;18.03;86.16
81125;BME280;72192;52.114;5.424;2023-09-07T06:30:13;102121.72;;;18.36;83.50
81125;BME280;72192;52.114;5.424;2023-09-07T06:33:01;102116.63;;;18.33;83.28
81125;BME280;72192;52.114;5.424;2023-09-07T06:35:49;102123.38;;;18.83;82.19
81125;BME280;72192;52.114;5.424;2023-09-07T06:38:29;102124.44;;;20.28;77.46
81125;BME280;72192;52.114;5.424;2023-09-07T06:41:18;102116.00;;;21.41;72.29
81125;BME280;72192;52.114;5.424;2023-09-07T06:44:06;102122.56;;;22.01;69.86
81125;BME280;72192;52.114;5.424;2023-09-07T06:46:46;102118.63;;;21.56;70.66
81125;BME280;72192;52.114;5.424;2023-09-07T06:49:38;102122.44;;;20.86;72.23
81125;BME280;72192;52.114;5.424;2023-09-07T06:52:25;102122.00;;;21.17;72.21
81125;BME280;72192;52.114;5.424;2023-09-07T06:55:07;102117.28;;;22.00;70.02
81125;BME280;72192;52.114;5.424;2023-09-07T06:57:49;102122.06;;;22.46;67.69
81125;BME280;72192;52.114;5.424;2023-09-07T07:00:34;102117.63;;;22.84;67.00
81125;BME280;72192;52.114;5.424;2023-09-07T07:03:26;102123.94;;;23.05;65.63
81125;BME280;72192;52.114;5.424;2023-09-07T07:06:14;102126.88;;;23.16;66.68
81125;BME280;72192;52.114;5.424;2023-09-07T07:08:57;102131.78;;;23.79;63.90
81125;BME280;72192;52.114;5.424;2023-09-07T07:11:45;102129.00;;;23.79;63.81
81125;BME280;72192;52.114;5.424;2023-09-07T07:14:34;102129.25;;;23.13;66.12
81125;BME280;72192;52.114;5.424;2023-09-07T07:17:14;102137.28;;;23.08;66.70
81125;BME280;72192;52.114;5.424;2023-09-07T07:20:03;102134.94;;;23.18;67.17
81125;BME280;72192;52.114;5.424;2023-09-07T07:22:52;102135.16;;;23.16;65.85
81125;BME280;72192;52.114;5.424;2023-09-07T07:25:40;102132.03;;;22.93;65.70
81125;BME280;72192;52.114;5.424;2023-09-07T07:28:24;102139.22;;;22.87;67.26
81125;BME280;72192;52.114;5.424;2023-09-07T07:31:13;102137.31;;;22.88;67.79
81125;BME280;72192;52.114;5.424;2023-09-07T07:34:01;102130.75;;;22.63;66.98
81125;BME280;72192;52.114;5.424;2023-09-07T07:36:49;102133.25;;;22.38;67.39
81125;BME280;72192;52.114;5.424;2023-09-07T07:39:37;102125.19;;;22.29;68.81
81125;BME280;72192;52.114;5.424;2023-09-07T07:42:17;102126.59;;;21.99;68.19
81125;BME280;72192;52.114;5.424;2023-09-07T07:45:08;102117.72;;;21.97;69.71
81125;BME280;72192;52.114;5.424;2023-09-07T07:47:53;102119.19;;;21.99;70.85
81125;BME280;72192;52.114;5.424;2023-09-07T07:50:39;102125.41;;;22.21;69.42
81125;BME280;72192;52.114;5.424;2023-09-07T07:53:27;102116.97;;;22.23;69.07
81125;BME280;72192;52.114;5.424;2023-09-07T07:55:56;102120.34;;;22.25;70.10
81125;BME280;72192;52.114;5.424;2023-09-07T07:58:44;102111.88;;;22.46;68.86
81125;BME280;72192;52.114;5.424;2023-09-07T08:01:35;102113.16;;;22.64;68.28
81125;BME280;72192;52.114;5.424;2023-09-07T08:04:24;102116.75;;;22.90;68.02
81125;BME280;72192;52.114;5.424;2023-09-07T08:07:08;102116.53;;;23.05;67.38
81125;BME280;72192;52.114;5.424;2023-09-07T08:09:51;102114.19;;;23.15;67.44
81125;BME280;72192;52.114;5.424;2023-09-07T08:12:39;102098.44;;;23.29;66.23
81125;BME280;72192;52.114;5.424;2023-09-07T08:15:28;102103.53;;;23.26;66.65
81125;BME280;72192;52.114;5.424;2023-09-07T08:18:18;102109.31;;;23.11;67.01
81125;BME280;72192;52.114;5.424;2023-09-07T08:21:06;102102.13;;;23.03;66.38
81125;BME280;72192;52.114;5.424;2023-09-07T08:23:54;102096.56;;;23.23;66.13
81125;BME280;72192;52.114;5.424;2023-09-07T08:26:37;102097.09;;;23.52;65.83
81125;BME280;72192;52.114;5.424;2023-09-07T08:29:27;102093.00;;;23.67;64.56
81125;BME280;72192;52.114;5.424;2023-09-07T08:32:18;102091.53;;;24.03;62.46
81125;BME280;72192;52.114;5.424;2023-09-07T08:35:02;102087.22;;;24.14;62.21
81125;BME280;72192;52.114;5.424;2023-09-07T08:37:44;102087.34;;;24.25;63.16
81125;BME280;72192;52.114;5.424;2023-09-07T08:40:26;102086.13;;;24.46;60.53
81125;BME280;72192;52.114;5.424;2023-09-07T08:43:08;102072.88;;;24.55;59.92
81125;BME280;72192;52.114;5.424;2023-09-07T08:46:04;102076.63;;;24.85;60.92
81125;BME280;72192;52.114;5.424;2023-09-07T08:48:57;102076.91;;;25.02;61.31
81125;BME280;72192;52.114;5.424;2023-09-07T08:51:42;102071.38;;;25.21;59.32
81125;BME280;72192;52.114;5.424;2023-09-07T08:54:33;102069.81;;;25.61;58.09
81125;BME280;72192;52.114;5.424;2023-09-07T08:57:23;102070.13;;;25.71;57.50
81125;BME280;72192;52.114;5.424;2023-09-07T09:00:10;102066.78;;;25.81;57.80
81125;BME280;72192;52.114;5.424;2023-09-07T09:02:59;102064.09;;;26.05;55.64
81125;BME280;72192;52.114;5.424;2023-09-07T09:05:39;102062.53;;;26.09;55.50
81125;BME280;72192;52.114;5.424;2023-09-07T09:08:19;102053.78;;;26.23;54.96
81125;BME280;72192;52.114;5.424;2023-09-07T09:11:04;102057.81;;;26.51;54.79
81125;BME280;72192;52.114;5.424;2023-09-07T09:13:46;102055.41;;;26.54;52.93
81125;BME280;72192;52.114;5.424;2023-09-07T09:16:28;102055.03;;;26.63;53.44
81125;BME280;72192;52.114;5.424;2023-09-07T09:19:08;102051.53;;;26.91;52.61
81125;BME280;72192;52.114;5.424;2023-09-07T09:21:47;102057.09;;;27.02;49.30
81125;BME280;72192;52.114;5.424;2023-09-07T09:24:32;102059.34;;;26.94;49.43
81125;BME280;72192;52.114;5.424;2023-09-07T09:27:12;102053.25;;;26.80;50.31
81125;BME280;72192;52.114;5.424;2023-09-07T09:29:52;102058.66;;;26.98;50.28
81125;BME280;72192;52.114;5.424;2023-09-07T09:32:32;102052.38;;;27.14;50.68
81125;BME280;72192;52.114;5.424;2023-09-07T09:35:12;102056.13;;;27.08;49.06
81125;BME280;72192;52.114;5.424;2023-09-07T09:37:56;102048.53;;;27.15;47.43
81125;BME280;72192;52.114;5.424;2023-09-07T09:40:43;102048.75;;;27.26;48.78
81125;BME280;72192;52.114;5.424;2023-09-07T09:43:25;102048.06;;;27.47;48.07
81125;BME280;72192;52.114;5.424;2023-09-07T09:46:17;102042.44;;;27.30;45.78
81125;BME280;72192;52.114;5.424;2023-09-07T09:48:57;102041.59;;;27.30;46.92
81125;BME280;72192;52.114;5.424;2023-09-07T09:51:39;102044.16;;;27.20;46.51
81125;BME280;72192;52.114;5.424;2023-09-07T09:54:23;102042.06;;;27.38;46.83
81125;BME280;72192;52.114;5.424;2023-09-07T09:57:04;102045.91;;;27.37;46.29
81125;BME280;72192;52.114;5.424;2023-09-07T09:59:45;102045.88;;;27.49;46.24
81125;BME280;72192;52.114;5.424;2023-09-07T10:02:29;102041.69;;;27.75;46.85
81125;BME280;72192;52.114;5.424;2023-09-07T10:05:16;102038.44;;;27.95;47.17
81125;BME280;72192;52.114;5.424;2023-09-07T10:08:03;102034.94;;;28.16;46.13
81125;BME280;72192;52.114;5.424;2023-09-07T10:10:53;102032.06;;;28.11;45.95
81125;BME280;72192;52.114;5.424;2023-09-07T10:13:57;102032.09;;;28.45;45.77
81125;BME280;72192;52.114;5.424;2023-09-07T10:16:44;102020.47;;;28.31;44.27
81125;BME280;72192;52.114;5.424;2023-09-07T10:19:28;102026.28;;;28.13;44.06
81125;BME280;72192;52.114;5.424;2023-09-07T10:22:21;102027.88;;;28.25;46.16
81125;BME280;72192;52.114;5.424;2023-09-07T10:25:01;102023.75;;;28.28;44.97
81125;BME280;72192;52.114;5.424;2023-09-07T10:27:51;102023.25;;;28.31;44.52
81125;BME280;72192;52.114;5.424;2023-09-07T10:30:41;102025.50;;;28.51;44.60
81125;BME280;72192;52.114;5.424;2023-09-07T10:33:36;102026.72;;;28.77;44.67
81125;BME280;72192;52.114;5.424;2023-09-07T10:36:26;102020.41;;;28.81;43.74
81125;BME280;72192;52.114;5.424;2023-09-07T10:39:07;102014.75;;;28.93;45.08
81125;BME280;72192;52.114;5.424;2023-09-07T10:41:47;102017.28;;;29.17;44.57
81125;BME280;72192;52.114;5.424;2023-09-07T10:44:27;102015.78;;;29.31;43.46
81125;BME280;72192;52.114;5.424;2023-09-07T10:47:18;102008.31;;;29.36;43.34
81125;BME280;72192;52.114;5.424;2023-09-07T10:49:58;102014.56;;;29.22;42.06
81125;BME280;72192;52.114;5.424;2023-09-07T10:52:44;102008.34;;;29.14;44.06
81125;BME280;72192;52.114;5.424;2023-09-07T10:55:38;102012.78;;;29.37;43.19
81125;BME280;72192;52.114;5.424;2023-09-07T10:58:47;102013.38;;;29.61;43.49
81125;BME280;72192;52.114;5.424;2023-09-07T11:01:30;102011.00;;;29.26;42.80
81125;BME280;72192;52.114;5.424;2023-09-07T11:04:12;102003.72;;;29.47;43.39
81125;BME280;72192;52.114;5.424;2023-09-07T11:07:03;102001.53;;;29.49;42.08
81125;BME280;72192;52.114;5.424;2023-09-07T11:09:51;101986.56;;;29.55;42.16
81125;BME280;72192;52.114;5.424;2023-09-07T11:12:37;101993.16;;;29.71;43.76
81125;BME280;72192;52.114;5.424;2023-09-07T11:15:19;101989.84;;;29.79;42.80
81125;BME280;72192;52.114;5.424;2023-09-07T11:18:06;101990.72;;;29.80;39.99
81125;BME280;72192;52.114;5.424;2023-09-07T11:20:49;101995.88;;;29.66;39.70
81125;BME280;72192;52.114;5.424;2023-09-07T11:23:34;101979.06;;;29.56;39.08
81125;BME280;72192;52.114;5.424;2023-09-07T11:26:18;101980.78;;;29.62;40.61
81125;BME280;72192;52.114;5.424;2023-09-07T11:29:04;101974.25;;;29.78;39.33
81125;BME280;72192;52.114;5.424;2023-09-07T11:31:51;101971.78;;;29.82;39.66
81125;BME280;72192;52.114;5.424;2023-09-07T11:34:48;101976.38;;;29.66;39.44
81125;BME280;72192;52.114;5.424;2023-09-07T11:37:31;101977.75;;;29.95;41.48
81125;BME280;72192;52.114;5.424;2023-09-07T11:40:13;101971.81;;;29.87;38.75
81125;BME280;72192;52.114;5.424;2023-09-07T11:42:57;101967.16;;;29.97;39.37
81125;BME280;72192;52.114;5.424;2023-09-07T11:45:39;101978.38;;;30.03;39.36
81125;BME280;72192;52.114;5.424;2023-09-07T11:48:27;101971.66;;;30.36;39.27
81125;BME280;72192;52.114;5.424;2023-09-07T11:51:07;101958.06;;;30.39;38.45
81125;BME280;72192;52.114;5.424;2023-09-07T11:53:48;101957.78;;;30.46;39.11
81125;BME280;72192;52.114;5.424;2023-09-07T11:56:37;101956.50;;;30.59;39.50
81125;BME280;72192;52.114;5.424;2023-09-07T11:59:21;101971.97;;;30.81;39.47
81125;BME280;72192;52.114;5.424;2023-09-07T12:02:03;101955.91;;;30.56;38.24
81125;BME280;72192;52.114;5.424;2023-09-07T12:04:48;101958.53;;;30.68;38.77
81125;BME280;72192;52.114;5.424;2023-09-07T12:07:38;101957.13;;;30.71;38.94
81125;BME280;72192;52.114;5.424;2023-09-07T12:10:26;101954.69;;;30.84;40.26
81125;BME280;72192;52.114;5.424;2023-09-07T12:13:16;101957.94;;;31.29;38.28
81125;BME280;72192;52.114;5.424;2023-09-07T12:16:04;101949.59;;;31.75;37.38
81125;BME280;72192;52.114;5.424;2023-09-07T12:18:53;101943.47;;;32.18;36.99
81125;BME280;72192;52.114;5.424;2023-09-07T12:21:41;101941.53;;;32.09;36.27
81125;BME280;72192;52.114;5.424;2023-09-07T12:24:29;101942.63;;;32.13;36.81
81125;BME280;72192;52.114;5.424;2023-09-07T12:27:18;101944.31;;;32.34;36.35
81125;BME280;72192;52.114;5.424;2023-09-07T12:30:07;101937.22;;;32.62;35.96
81125;BME280;72192;52.114;5.424;2023-09-07T12:32:59;101935.47;;;32.81;35.43
81125;BME280;72192;52.114;5.424;2023-09-07T12:35:47;101923.13;;;32.98;35.23
81125;BME280;72192;52.114;5.424;2023-09-07T12:38:35;101923.28;;;33.17;34.96
81125;BME280;72192;52.114;5.424;2023-09-07T12:41:24;101923.06;;;33.03;34.22
81125;BME280;72192;52.114;5.424;2023-09-07T12:44:12;101924.06;;;33.22;34.17
81125;BME280;72192;52.114;5.424;2023-09-07T12:47:00;101924.84;;;33.33;33.90
81125;BME280;72192;52.114;5.424;2023-09-07T12:49:48;101916.50;;;33.28;34.39
81125;BME280;72192;52.114;5.424;2023-09-07T12:52:33;101925.97;;;33.76;34.07
81125;BME280;72192;52.114;5.424;2023-09-07T12:55:25;101922.06;;;34.06;34.00
81125;BME280;72192;52.114;5.424;2023-09-07T12:58:14;101919.91;;;34.75;33.19
81125;BME280;72192;52.114;5.424;2023-09-07T13:01:02;101909.06;;;34.15;31.76
81125;BME280;72192;52.114;5.424;2023-09-07T13:03:51;101904.22;;;34.21;32.45
81125;BME280;72192;52.114;5.424;2023-09-07T13:06:42;101904.72;;;34.76;33.39
81125;BME280;72192;52.114;5.424;2023-09-07T13:09:11;101903.53;;;34.82;32.45
81125;BME280;72192;52.114;5.424;2023-09-07T13:12:01;101899.66;;;35.21;32.03
81125;BME280;72192;52.114;5.424;2023-09-07T13:14:49;101896.75;;;35.26;31.27
81125;BME280;72192;52.114;5.424;2023-09-07T13:17:38;101894.72;;;35.13;31.69
81125;BME280;72192;52.114;5.424;2023-09-07T13:20:27;101892.81;;;34.41;30.54
81125;BME280;72192;52.114;5.424;2023-09-07T13:23:16;101891.81;;;35.18;31.90
81125;BME280;72192;52.114;5.424;2023-09-07T13:26:04;101877.66;;;35.60;29.99
81125;BME280;72192;52.114;5.424;2023-09-07T13:28:54;101883.84;;;35.76;29.80
81125;BME280;72192;52.114;5.424;2023-09-07T13:31:42;101886.34;;;34.65;30.03
81125;BME280;72192;52.114;5.424;2023-09-07T13:34:32;101880.91;;;34.26;30.72
81125;BME280;72192;52.114;5.424;2023-09-07T13:37:20;101881.84;;;34.16;32.55
81125;BME280;72192;52.114;5.424;2023-09-07T13:40:08;101867.09;;;34.05;31.05
81125;BME280;72192;52.114;5.424;2023-09-07T13:42:57;101873.63;;;34.25;30.82
81125;BME280;72192;52.114;5.424;2023-09-07T13:45:45;101867.91;;;34.77;29.68
81125;BME280;72192;52.114;5.424;2023-09-07T13:48:34;101861.34;;;35.44;29.06
81125;BME280;72192;52.114;5.424;2023-09-07T13:51:22;101865.75;;;35.82;28.53
81125;BME280;72192;52.114;5.424;2023-09-07T13:54:11;101863.28;;;36.08;29.01
81125;BME280;72192;52.114;5.424;2023-09-07T13:56:59;101857.16;;;36.06;27.73
81125;BME280;72192;52.114;5.424;2023-09-07T13:59:47;101856.88;;;36.49;28.22
81125;BME280;72192;52.114;5.424;2023-09-07T14:02:35;101855.63;;;37.41;27.53
81125;BME280;72192;52.114;5.424;2023-09-07T14:05:04;101855.72;;;37.36;27.85
81125;BME280;72192;52.114;5.424;2023-09-07T14:07:54;101851.84;;;37.99;25.91
81125;BME280;72192;52.114;5.424;2023-09-07T14:10:44;101849.97;;;38.91;25.57
81125;BME280;72192;52.114;5.424;2023-09-07T14:13:33;101850.13;;;39.03;26.83
81125;BME280;72192;52.114;5.424;2023-09-07T14:16:22;101849.97;;;38.91;25.77
81125;BME280;72192;52.114;5.424;2023-09-07T14:19:11;101851.28;;;38.77;25.58
81125;BME280;72192;52.114;5.424;2023-09-07T14:22:00;101853.63;;;38.75;25.45
81125;BME280;72192;52.114;5.424;2023-09-07T14:24:48;101840.31;;;39.62;25.13
81125;BME280;72192;52.114;5.424;2023-09-07T14:27:36;101831.09;;;40.20;25.20
81125;BME280;72192;52.114;5.424;2023-09-07T14:30:25;101835.91;;;40.87;24.45
81125;BME280;72192;52.114;5.424;2023-09-07T14:33:13;101834.56;;;40.85;22.87
81125;BME280;72192;52.114;5.424;2023-09-07T14:35:42;101828.06;;;41.05;23.61
81125;BME280;72192;52.114;5.424;2023-09-07T14:38:31;101828.31;;;41.66;22.37
81125;BME280;72192;52.114;5.424;2023-09-07T14:41:21;101818.44;;;42.09;21.85
81125;BME280;72192;52.114;5.424;2023-09-07T14:44:09;101825.44;;;41.99;21.62
81125;BME280;72192;52.114;5.424;2023-09-07T14:46:57;101815.69;;;41.31;21.77
81125;BME280;72192;52.114;5.424;2023-09-07T14:49:46;101816.88;;;40.88;23.08
81125;BME280;72192;52.114;5.424;2023-09-07T14:52:34;101820.94;;;41.53;21.66
81125;BME280;72192;52.114;5.424;2023-09-07T14:55:27;101825.34;;;40.37;22.53
81125;BME280;72192;52.114;5.424;2023-09-07T14:58:15;101821.72;;;39.26;23.95
81125;BME280;72192;52.114;5.424;2023-09-07T15:01:03;101818.16;;;38.11;25.80
81125;BME280;72192;52.114;5.424;2023-09-07T15:03:52;101819.22;;;36.45;28.61
81125;BME280;72192;52.114;5.424;2023-09-07T15:06:40;101820.00;;;34.93;29.86
81125;BME280;72192;52.114;5.424;2023-09-07T15:09:28;101814.50;;;33.92;32.01
81125;BME280;72192;52.114;5.424;2023-09-07T15:12:16;101818.59;;;33.07;34.10
81125;BME280;72192;52.114;5.424;2023-09-07T15:15:05;101812.53;;;32.41;35.75
81125;BME280;72192;52.114;5.424;2023-09-07T15:17:55;101811.56;;;31.96;36.72
81125;BME280;72192;52.114;5.424;2023-09-07T15:20:44;101802.94;;;31.67;37.12
81125;BME280;72192;52.114;5.424;2023-09-07T15:23:32;101810.22;;;31.32;37.86
81125;BME280;72192;52.114;5.424;2023-09-07T15:26:20;101800.41;;;31.09;39.00
81125;BME280;72192;52.114;5.424;2023-09-07T15:29:08;101810.94;;;30.72;39.45
81125;BME280;72192;52.114;5.424;2023-09-07T15:31:56;101813.13;;;30.60;39.48
81125;BME280;72192;52.114;5.424;2023-09-07T15:34:45;101803.84;;;30.44;39.50
81125;BME280;72192;52.114;5.424;2023-09-07T15:37:33;101806.28;;;30.20;40.40
81125;BME280;72192;52.114;5.424;2023-09-07T15:40:21;101814.78;;;30.03;41.26
81125;BME280;72192;52.114;5.424;2023-09-07T15:43:10;101812.72;;;29.88;42.22
81125;BME280;72192;52.114;5.424;2023-09-07T15:45:58;101802.06;;;29.70;42.11
81125;BME280;72192;52.114;5.424;2023-09-07T15:48:48;101803.59;;;29.56;42.21
81125;BME280;72192;52.114;5.424;2023-09-07T15:51:36;101799.00;;;29.39;42.31
81125;BME280;72192;52.114;5.424;2023-09-07T15:54:25;101797.81;;;29.30;43.36
81125;BME280;72192;52.114;5.424;2023-09-07T15:57:13;101793.84;;;29.21;42.65
81125;BME280;72192;52.114;5.424;2023-09-07T16:00:01;101791.53;;;29.13;43.63
81125;BME280;72192;52.114;5.424;2023-09-07T16:02:50;101789.81;;;29.07;43.10
81125;BME280;72192;52.114;5.424;2023-09-07T16:05:38;101791.13;;;28.99;43.76
81125;BME280;72192;52.114;5.424;2023-09-07T16:08:26;101792.47;;;28.92;43.61
81125;BME280;72192;52.114;5.424;2023-09-07T16:11:16;101785.97;;;28.86;43.83
81125;BME280;72192;52.114;5.424;2023-09-07T16:14:04;101778.41;;;28.81;44.65
81125;BME280;72192;52.114;5.424;2023-09-07T16:16:53;101778.63;;;28.75;44.43
81125;BME280;72192;52.114;5.424;2023-09-07T16:19:41;101776.03;;;28.68;44.78
81125;BME280;72192;52.114;5.424;2023-09-07T16:22:29;101778.19;;;28.61;45.82
81125;BME280;72192;52.114;5.424;2023-09-07T16:25:18;101780.28;;;28.49;46.23
81125;BME280;72192;52.114;5.424;2023-09-07T16:28:08;101774.09;;;28.42;46.48
81125;BME280;72192;52.114;5.424;2023-09-07T16:30:57;101766.78;;;28.36;47.03
81125;BME280;72192;52.114;5.424;2023-09-07T16:33:45;101778.66;;;28.31;47.73
81125;BME280;72192;52.114;5.424;2023-09-07T16:36:34;101777.19;;;28.23;47.53